sensor_id;sensor_type;location;lat;lon;timestamp;pressure;altitude;pressure_sealevel;temperature;humidity
27014;BME280;14556;52.222;4.510;2023-05-12T00:00:54;101105.22;;;9.40;100.00
27014;BME280;14556;52.222;4.510;2023-05-12T00:03:21;101100.88;;;9.39;100.00
27014;BME280;14556;52.222;4.510;2023-05-12T00:05:47;101104.00;;;9.42;100.00
27014;BME280;14556;52.222;4.510;2023-05-12T00:08:14;101112.47;;;9.46;100.00
27014;BME280;14556;52.222;4.510;2023-05-12T00:10:41;101103.03;;;9.43;100.00
27014;BME280;14556;52.222;4.510;2023-05-12T00:13:07;101095.81;;;9.44;100.00
27014;BME280;14556;52.222;4.510;2023-05-12T00:15:35;101099.41;;;9.36;100.00
27014;BME280;14556;52.222;4.510;2023-05-12T00:18:02;101099.88;;;9.40;100.00
27014;BME280;14556;52.222;4.510;2023-05-12T00:20:29;101107.25;;;9.38;100.00
27014;BME280;14556;52.222;4.510;2023-05-12T00:22:55;101101.91;;;9.38;100.00
27014;BME280;14556;52.222;4.510;2023-05-12T00:25:22;101103.94;;;9.36;100.00
27014;BME280;14556;52.222;4.510;2023-05-12T00:27:48;101101.44;;;9.34;100.00
27014;BME280;14556;52.222;4.510;2023-05-12T00:30:15;101106.97;;;9.33;100.00
27014;BME280;14556;52.222;4.510;2023-05-12T00:32:41;101092.31;;;9.28;100.00
27014;BME280;14556;52.222;4.510;2023-05-12T00:35:08;101103.66;;;9.30;100.00
27014;BME280;14556;52.222;4.510;2023-05-12T00:37:35;101097.66;;;9.28;100.00
27014;BME280;14556;52.222;4.510;2023-05-12T00:40:01;101091.31;;;9.29;100.00
27014;BME280;14556;52.222;4.510;2023-05-12T00:42:28;101089.47;;;9.30;100.00
27014;BME280;14556;52.222;4.510;2023-05-12T00:44:55;101089.03;;;9.26;100.00
27014;BME280;14556;52.222;4.510;2023-05-12T00:47:21;101087.81;;;9.29;100.00
27014;BME280;14556;52.222;4.510;2023-05-12T00:49:48;101094.00;;;9.29;100.00
27014;BME280;14556;52.222;4.510;2023-05-12T00:52:14;101088.00;;;9.27;100.00
27014;BME280;14556;52.222;4.510;2023-05-12T00:54:41;101085.72;;;9.24;100.00
27014;BME280;14556;52.222;4.510;2023-05-12T00:57:10;101085.06;;;9.22;100.00
27014;BME280;14556;52.222;4.510;2023-05-12T00:59:36;101090.59;;;9.21;100.00
27014;BME280;14556;52.222;4.510;2023-05-12T01:02:03;101087.06;;;9.20;100.00
27014;BME280;14556;52.222;4.510;2023-05-12T01:04:30;101091.41;;;9.21;100.00
27014;BME280;14556;52.222;4.510;2023-05-12T01:07:22;101086.06;;;9.21;100.00
27014;BME280;14556;52.222;4.510;2023-05-12T01:09:53;101096.72;;;9.21;100.00
27014;BME280;14556;52.222;4.510;2023-05-12T01:12:21;101084.59;;;9.18;100.00
27014;BME280;14556;52.222;4.510;2023-05-12T01:14:49;101085.25;;;9.21;100.00
27014;BME280;14556;52.222;4.510;2023-05-12T01:17:19;101088.72;;;9.21;100.00
27014;BME280;14556;52.222;4.510;2023-05-12T01:19:49;101069.47;;;9.11;100.00
27014;BME280;14556;52.222;4.510;2023-05-12T01:22:17;101084.41;;;9.20;100.00
27014;BME280;14556;52.222;4.510;2023-05-12T01:24:54;101069.19;;;9.05;100.00
27014;BME280;14556;52.222;4.510;2023-05-12T01:27:21;101083.94;;;9.16;100.00
27014;BME280;14556;52.222;4.510;2023-05-12T01:29:48;101085.78;;;9.16;100.00
27014;BME280;14556;52.222;4.510;2023-05-12T01:32:17;101082.50;;;9.14;100.00
27014;BME280;14556;52.222;4.510;2023-05-12T01:34:43;101083.75;;;9.18;100.00
27014;BME280;14556;52.222;4.510;2023-05-12T01:37:11;101079.25;;;9.18;100.00
27014;BME280;14556;52.222;4.510;2023-05-12T01:39:38;101082.75;;;9.19;100.00
27014;BME280;14556;52.222;4.510;2023-05-12T01:42:04;101082.94;;;9.17;100.00
27014;BME280;14556;52.222;4.510;2023-05-12T01:44:31;101076.13;;;9.15;100.00
27014;BME280;14556;52.222;4.510;2023-05-12T01:46:58;101084.78;;;9.17;100.00
27014;BME280;14556;52.222;4.510;2023-05-12T01:49:24;101074.09;;;9.17;100.00
27014;BME280;14556;52.222;4.510;2023-05-12T01:51:52;101079.63;;;9.15;100.00
27014;BME280;14556;52.222;4.510;2023-05-12T01:54:19;101078.59;;;9.16;100.00
27014;BME280;14556;52.222;4.510;2023-05-12T01:56:46;101070.31;;;9.11;100.00
27014;BME280;14556;52.222;4.510;2023-05-12T01:59:12;101062.31;;;9.11;100.00
27014;BME280;14556;52.222;4.510;2023-05-12T02:01:39;101078.97;;;9.13;100.00
27014;BME280;14556;52.222;4.510;2023-05-12T02:04:05;101069.16;;;9.14;100.00
27014;BME280;14556;52.222;4.510;2023-05-12T02:06:34;101066.81;;;9.11;100.00
27014;BME280;14556;52.222;4.510;2023-05-12T02:09:00;101069.31;;;9.12;100.00
27014;BME280;14556;52.222;4.510;2023-05-12T02:11:27;101074.66;;;9.12;100.00
27014;BME280;14556;52.222;4.510;2023-05-12T02:13:53;101071.16;;;9.12;100.00
27014;BME280;14556;52.222;4.510;2023-05-12T02:16:20;101065.63;;;9.13;100.00
27014;BME280;14556;52.222;4.510;2023-05-12T02:18:47;101070.13;;;9.13;100.00
27014;BME280;14556;52.222;4.510;2023-05-12T02:21:13;101068.50;;;9.12;100.00
27014;BME280;14556;52.222;4.510;2023-05-12T02:23:40;101066.00;;;9.10;100.00
27014;BME280;14556;52.222;4.510;2023-05-12T02:26:07;101053.56;;;9.02;100.00
27014;BME280;14556;52.222;4.510;2023-05-12T02:28:33;101062.31;;;9.11;100.00
27014;BME280;14556;52.222;4.510;2023-05-12T02:31:00;101064.16;;;9.11;100.00
27014;BME280;14556;52.222;4.510;2023-05-12T02:33:26;101064.97;;;9.11;100.00
27014;BME280;14556;52.222;4.510;2023-05-12T02:35:53;101061.31;;;9.12;100.00
27014;BME280;14556;52.222;4.510;2023-05-12T02:38:19;101051.63;;;9.11;100.00
27014;BME280;14556;52.222;4.510;2023-05-12T02:40:46;101054.97;;;9.13;100.00
27014;BME280;14556;52.222;4.510;2023-05-12T02:43:13;101051.25;;;9.14;100.00
27014;BME280;14556;52.222;4.510;2023-05-12T02:45:39;101051.44;;;9.13;100.00
27014;BME280;14556;52.222;4.510;2023-05-12T02:48:06;101046.88;;;9.06;100.00
27014;BME280;14556;52.222;4.510;2023-05-12T02:50:33;101052.84;;;9.09;100.00
27014;BME280;14556;52.222;4.510;2023-05-12T02:52:59;101051.38;;;9.06;100.00
27014;BME280;14556;52.222;4.510;2023-05-12T02:55:26;101046.03;;;9.06;100.00
27014;BME280;14556;52.222;4.510;2023-05-12T02:57:55;101055.88;;;9.05;100.00
27014;BME280;14556;52.222;4.510;2023-05-12T03:00:22;101040.69;;;9.06;100.00
27014;BME280;14556;52.222;4.510;2023-05-12T03:02:48;101039.69;;;9.07;100.00
27014;BME280;14556;52.222;4.510;2023-05-12T03:05:15;101042.97;;;9.09;100.00
27014;BME280;14556;52.222;4.510;2023-05-12T03:07:41;101036.19;;;9.06;100.00
27014;BME280;14556;52.222;4.510;2023-05-12T03:10:08;101040.03;;;9.04;100.00
27014;BME280;14556;52.222;4.510;2023-05-12T03:12:37;101035.91;;;9.01;100.00
27014;BME280;14556;52.222;4.510;2023-05-12T03:15:04;101033.44;;;9.00;100.00
27014;BME280;14556;52.222;4.510;2023-05-12T03:17:31;101035.63;;;8.96;100.00
27014;BME280;14556;52.222;4.510;2023-05-12T03:19:57;101034.78;;;8.95;100.00
27014;BME280;14556;52.222;4.510;2023-05-12T03:22:24;101032.50;;;8.92;100.00
27014;BME280;14556;52.222;4.510;2023-05-12T03:24:50;101033.69;;;8.90;100.00
27014;BME280;14556;52.222;4.510;2023-05-12T03:27:17;101030.38;;;8.88;100.00
27014;BME280;14556;52.222;4.510;2023-05-12T03:29:44;101026.03;;;8.87;100.00
27014;BME280;14556;52.222;4.510;2023-05-12T03:32:11;101026.41;;;8.83;100.00
27014;BME280;14556;52.222;4.510;2023-05-12T03:34:37;101018.97;;;8.79;100.00
27014;BME280;14556;52.222;4.510;2023-05-12T03:37:04;101025.13;;;8.79;100.00
27014;BME280;14556;52.222;4.510;2023-05-12T03:39:32;101027.16;;;8.77;100.00
27014;BME280;14556;52.222;4.510;2023-05-12T03:41:59;101026.50;;;8.75;100.00
27014;BME280;14556;52.222;4.510;2023-05-12T03:44:25;101024.50;;;8.77;100.00
27014;BME280;14556;52.222;4.510;2023-05-12T03:46:52;101031.84;;;8.75;100.00
27014;BME280;14556;52.222;4.510;2023-05-12T03:49:18;101023.19;;;8.73;100.00
27014;BME280;14556;52.222;4.510;2023-05-12T03:51:45;101018.84;;;8.72;100.00
27014;BME280;14556;52.222;4.510;2023-05-12T03:54:11;101024.19;;;8.72;100.00
27014;BME280;14556;52.222;4.510;2023-05-12T03:56:38;101017.66;;;8.75;100.00
27014;BME280;14556;52.222;4.510;2023-05-12T03:59:04;101020.53;;;8.73;100.00
27014;BME280;14556;52.222;4.510;2023-05-12T04:01:31;101019.69;;;8.73;100.00
27014;BME280;14556;52.222;4.510;2023-05-12T04:03:58;101014.53;;;8.71;100.00
27014;BME280;14556;52.222;4.510;2023-05-12T04:06:24;101018.84;;;8.72;100.00
27014;BME280;14556;52.222;4.510;2023-05-12T04:08:51;101018.84;;;8.72;100.00
27014;BME280;14556;52.222;4.510;2023-05-12T04:11:17;101014.53;;;8.71;100.00
27014;BME280;14556;52.222;4.510;2023-05-12T04:13:44;101010.22;;;8.70;100.00
27014;BME280;14556;52.222;4.510;2023-05-12T04:16:10;101022.34;;;8.73;100.00
27014;BME280;14556;52.222;4.510;2023-05-12T04:18:36;101024.84;;;8.74;100.00
27014;BME280;14556;52.222;4.510;2023-05-12T04:21:03;101022.16;;;8.74;100.00
27014;BME280;14556;52.222;4.510;2023-05-12T04:23:31;101020.34;;;8.75;100.00
27014;BME280;14556;52.222;4.510;2023-05-12T04:25:58;101015.84;;;8.75;100.00
27014;BME280;14556;52.222;4.510;2023-05-12T04:28:24;101015.84;;;8.75;100.00
27014;BME280;14556;52.222;4.510;2023-05-12T04:30:51;101026.31;;;8.77;100.00
27014;BME280;14556;52.222;4.510;2023-05-12T04:33:17;101021.81;;;8.77;100.00
27014;BME280;14556;52.222;4.510;2023-05-12T04:35:44;101014.63;;;8.78;100.00
27014;BME280;14556;52.222;4.510;2023-05-12T04:38:11;101015.47;;;8.78;100.00
27014;BME280;14556;52.222;4.510;2023-05-12T04:40:38;101017.47;;;8.76;100.00
27014;BME280;14556;52.222;4.510;2023-05-12T04:43:04;101020.81;;;8.78;100.00
27014;BME280;14556;52.222;4.510;2023-05-12T04:45:31;101018.78;;;8.80;100.00
27014;BME280;14556;52.222;4.510;2023-05-12T04:47:57;101027.59;;;8.81;100.00
27014;BME280;14556;52.222;4.510;2023-05-12T04:50:24;101024.13;;;8.80;100.00
27014;BME280;14556;52.222;4.510;2023-05-12T04:52:50;101025.75;;;8.81;100.00
27014;BME280;14556;52.222;4.510;2023-05-12T04:55:17;101026.78;;;8.80;100.00
27014;BME280;14556;52.222;4.510;2023-05-12T04:57:44;101030.91;;;8.83;100.00
27014;BME280;14556;52.222;4.510;2023-05-12T05:00:11;101029.94;;;8.84;100.00
27014;BME280;14556;52.222;4.510;2023-05-12T05:02:37;101026.59;;;8.82;100.00
27014;BME280;14556;52.222;4.510;2023-05-12T05:05:05;101044.06;;;8.85;100.00
27014;BME280;14556;52.222;4.510;2023-05-12T05:07:31;101041.88;;;8.88;100.00
27014;BME280;14556;52.222;4.510;2023-05-12T05:09:58;101040.22;;;8.87;100.00
27014;BME280;14556;52.222;4.510;2023-05-12T05:12:24;101041.06;;;8.88;100.00
27014;BME280;14556;52.222;4.510;2023-05-12T05:14:51;101044.34;;;8.90;100.00
27014;BME280;14556;52.222;4.510;2023-05-12T05:17:17;101046.22;;;8.89;100.00
27014;BME280;14556;52.222;4.510;2023-05-12T05:19:44;101050.34;;;8.92;100.00
27014;BME280;14556;52.222;4.510;2023-05-12T05:22:24;101049.97;;;8.95;100.00
27014;BME280;14556;52.222;4.510;2023-05-12T05:24:50;101044.44;;;8.97;100.00
27014;BME280;14556;52.222;4.510;2023-05-12T05:27:17;101050.09;;;9.02;100.00
27014;BME280;14556;52.222;4.510;2023-05-12T05:29:44;101054.41;;;9.03;100.00
27014;BME280;14556;52.222;4.510;2023-05-12T05:32:11;101058.72;;;9.04;100.00
27014;BME280;14556;52.222;4.510;2023-05-12T05:34:37;101053.03;;;9.07;100.00
27014;BME280;14556;52.222;4.510;2023-05-12T05:37:04;101061.84;;;9.07;100.00
27014;BME280;14556;52.222;4.510;2023-05-12T05:39:31;101063.34;;;9.10;100.00
27014;BME280;14556;52.222;4.510;2023-05-12T05:41:58;101052.47;;;9.12;100.00
27014;BME280;14556;52.222;4.510;2023-05-12T05:44:25;101065.25;;;9.16;100.00
27014;BME280;14556;52.222;4.510;2023-05-12T05:46:51;101065.72;;;9.20;100.00
27014;BME280;14556;52.222;4.510;2023-05-12T05:49:18;101073.34;;;9.23;100.00
27014;BME280;14556;52.222;4.510;2023-05-12T05:51:44;101067.84;;;9.25;100.00
27014;BME280;14556;52.222;4.510;2023-05-12T05:54:11;101072.81;;;9.28;100.00
27014;BME280;14556;52.222;4.510;2023-05-12T05:56:37;101078.16;;;9.28;100.00
27014;BME280;14556;52.222;4.510;2023-05-12T05:59:04;101078.63;;;9.31;100.00
27014;BME280;14556;52.222;4.510;2023-05-12T06:01:31;101077.41;;;9.34;100.00
27014;BME280;14556;52.222;4.510;2023-05-12T06:03:58;101074.94;;;9.33;100.00
27014;BME280;14556;52.222;4.510;2023-05-12T06:06:25;101075.78;;;9.33;100.00
27014;BME280;14556;52.222;4.510;2023-05-12T06:08:51;101071.25;;;9.34;100.00
27014;BME280;14556;52.222;4.510;2023-05-12T06:11:21;101070.44;;;9.33;100.00
27014;BME280;14556;52.222;4.510;2023-05-12T06:13:47;101072.06;;;9.34;100.00
27014;BME280;14556;52.222;4.510;2023-05-12T06:16:14;101078.72;;;9.38;100.00
27014;BME280;14556;52.222;4.510;2023-05-12T06:18:40;101083.03;;;9.39;100.00
27014;BME280;14556;52.222;4.510;2023-05-12T06:21:07;101091.03;;;9.39;100.00
27014;BME280;14556;52.222;4.510;2023-05-12T06:23:33;101083.50;;;9.43;100.00
27014;BME280;14556;52.222;4.510;2023-05-12T06:26:00;101090.28;;;9.46;100.00
27014;BME280;14556;52.222;4.510;2023-05-12T06:28:26;101095.09;;;9.50;100.00
27014;BME280;14556;52.222;4.510;2023-05-12T06:30:53;101093.25;;;9.51;100.00
27014;BME280;14556;52.222;4.510;2023-05-12T06:33:19;101087.72;;;9.52;100.00
27014;BME280;14556;52.222;4.510;2023-05-12T06:35:46;101096.34;;;9.54;100.00
27014;BME280;14556;52.222;4.510;2023-05-12T06:38:13;101095.38;;;9.55;100.00
27014;BME280;14556;52.222;4.510;2023-05-12T06:40:40;101097.47;;;9.60;100.00
27014;BME280;14556;52.222;4.510;2023-05-12T06:43:06;101089.28;;;9.62;100.00
27014;BME280;14556;52.222;4.510;2023-05-12T06:45:33;101100.88;;;9.69;100.00
27014;BME280;14556;52.222;4.510;2023-05-12T06:47:59;101092.47;;;9.72;100.00
27014;BME280;14556;52.222;4.510;2023-05-12T06:50:27;101091.75;;;9.78;100.00
27014;BME280;14556;52.222;4.510;2023-05-12T06:52:54;101096.13;;;9.86;100.00
27014;BME280;14556;52.222;4.510;2023-05-12T06:55:21;101099.91;;;9.92;100.00
27014;BME280;14556;52.222;4.510;2023-05-12T06:57:48;101102.19;;;9.95;100.00
27014;BME280;14556;52.222;4.510;2023-05-12T07:00:22;101085.44;;;9.86;100.00
27014;BME280;14556;52.222;4.510;2023-05-12T07:02:49;101101.91;;;10.05;100.00
27014;BME280;14556;52.222;4.510;2023-05-12T07:05:15;101102.53;;;10.07;100.00
27014;BME280;14556;52.222;4.510;2023-05-12T07:07:44;101107.16;;;10.13;100.00
27014;BME280;14556;52.222;4.510;2023-05-12T07:10:10;101104.91;;;10.17;100.00
27014;BME280;14556;52.222;4.510;2023-05-12T07:12:37;101108.50;;;10.24;100.00
27014;BME280;14556;52.222;4.510;2023-05-12T07:15:05;101107.47;;;10.25;100.00
27014;BME280;14556;52.222;4.510;2023-05-12T07:17:32;101106.09;;;10.30;100.00
27014;BME280;14556;52.222;4.510;2023-05-12T07:19:58;101108.22;;;10.41;100.00
27014;BME280;14556;52.222;4.510;2023-05-12T07:22:25;101109.47;;;10.60;100.00
27014;BME280;14556;52.222;4.510;2023-05-12T07:24:51;101103.59;;;10.72;100.00
27014;BME280;14556;52.222;4.510;2023-05-12T07:27:18;101108.56;;;10.75;100.00
27014;BME280;14556;52.222;4.510;2023-05-12T07:29:44;101108.63;;;10.82;100.00
27014;BME280;14556;52.222;4.510;2023-05-12T07:32:11;101098.81;;;10.89;100.00
27014;BME280;14556;52.222;4.510;2023-05-12T07:34:37;101102.34;;;10.96;100.00
27014;BME280;14556;52.222;4.510;2023-05-12T07:37:04;101100.94;;;11.00;100.00
27014;BME280;14556;52.222;4.510;2023-05-12T07:39:31;101117.88;;;11.08;100.00
27014;BME280;14556;52.222;4.510;2023-05-12T07:41:58;101105.94;;;11.10;100.00
27014;BME280;14556;52.222;4.510;2023-05-12T07:44:25;101110.91;;;11.14;100.00
27014;BME280;14556;52.222;4.510;2023-05-12T07:46:51;101114.84;;;11.18;100.00
27014;BME280;14556;52.222;4.510;2023-05-12T07:49:18;101114.28;;;11.22;100.00
27014;BME280;14556;52.222;4.510;2023-05-12T07:51:45;101126.22;;;11.27;100.00
27014;BME280;14556;52.222;4.510;2023-05-12T07:54:11;101126.69;;;11.37;100.00
27014;BME280;14556;52.222;4.510;2023-05-12T07:56:38;101119.13;;;11.47;100.00
27014;BME280;14556;52.222;4.510;2023-05-12T07:59:05;101125.31;;;11.48;100.00
27014;BME280;14556;52.222;4.510;2023-05-12T08:01:31;101125.16;;;11.56;100.00
27014;BME280;14556;52.222;4.510;2023-05-12T08:03:58;101121.50;;;11.64;100.00
27014;BME280;14556;52.222;4.510;2023-05-12T08:06:24;101120.69;;;11.70;100.00
27014;BME280;14556;52.222;4.510;2023-05-12T08:08:52;101132.94;;;11.93;100.00
27014;BME280;14556;52.222;4.510;2023-05-12T08:11:18;101134.22;;;11.97;100.00
27014;BME280;14556;52.222;4.510;2023-05-12T08:13:45;101141.84;;;11.94;100.00
27014;BME280;14556;52.222;4.510;2023-05-12T08:16:11;101133.59;;;11.95;100.00
27014;BME280;14556;52.222;4.510;2023-05-12T08:18:38;101135.25;;;12.03;100.00
27014;BME280;14556;52.222;4.510;2023-05-12T08:21:04;101143.50;;;12.08;100.00
27014;BME280;14556;52.222;4.510;2023-05-12T08:23:31;101137.81;;;12.12;100.00
27014;BME280;14556;52.222;4.510;2023-05-12T08:25:57;101142.97;;;12.13;100.00
27014;BME280;14556;52.222;4.510;2023-05-12T08:28:24;101147.28;;;12.21;100.00
27014;BME280;14556;52.222;4.510;2023-05-12T08:30:50;101149.19;;;12.34;100.00
27014;BME280;14556;52.222;4.510;2023-05-12T08:33:17;101143.00;;;12.47;100.00
27014;BME280;14556;52.222;4.510;2023-05-12T08:35:44;101139.53;;;12.60;100.00
27014;BME280;14556;52.222;4.510;2023-05-12T08:38:10;101147.78;;;12.59;100.00
27014;BME280;14556;52.222;4.510;2023-05-12T08:40:46;101156.91;;;12.64;100.00
27014;BME280;14556;52.222;4.510;2023-05-12T08:43:23;101150.69;;;12.64;100.00
27014;BME280;14556;52.222;4.510;2023-05-12T08:45:52;101147.19;;;12.70;100.00
27014;BME280;14556;52.222;4.510;2023-05-12T08:48:28;101133.38;;;12.80;100.00
27014;BME280;14556;52.222;4.510;2023-05-12T08:50:55;101141.63;;;12.92;100.00
27014;BME280;14556;52.222;4.510;2023-05-12T08:53:23;101140.38;;;12.94;100.00
27014;BME280;14556;52.222;4.510;2023-05-12T08:55:52;101139.56;;;13.01;100.00
27014;BME280;14556;52.222;4.510;2023-05-12T08:58:38;101132.72;;;13.25;100.00
27014;BME280;14556;52.222;4.510;2023-05-12T09:01:10;101147.34;;;13.43;100.00
27014;BME280;14556;52.222;4.510;2023-05-12T09:03:36;101142.75;;;13.57;100.00
27014;BME280;14556;52.222;4.510;2023-05-12T09:06:05;101151.44;;;13.73;100.00
27014;BME280;14556;52.222;4.510;2023-05-12T09:08:32;101153.66;;;13.83;100.00
27014;BME280;14556;52.222;4.510;2023-05-12T09:11:00;101146.63;;;13.75;100.00
27014;BME280;14556;52.222;4.510;2023-05-12T09:16:43;101149.66;;;13.99;100.00
27014;BME280;14556;52.222;4.510;2023-05-12T09:19:10;101150.88;;;14.03;100.00
27014;BME280;14556;52.222;4.510;2023-05-12T09:21:37;101151.66;;;14.10;100.00
27014;BME280;14556;52.222;4.510;2023-05-12T09:24:05;101149.69;;;13.92;100.00
27014;BME280;14556;52.222;4.510;2023-05-12T09:26:52;101157.59;;;13.87;100.00
27014;BME280;14556;52.222;4.510;2023-05-12T09:29:19;101153.81;;;13.95;100.00
27014;BME280;14556;52.222;4.510;2023-05-12T09:31:57;101149.44;;;14.00;100.00
27014;BME280;14556;52.222;4.510;2023-05-12T09:34:33;101157.00;;;14.17;100.00
27014;BME280;14556;52.222;4.510;2023-05-12T09:37:04;101167.09;;;14.29;100.00
27014;BME280;14556;52.222;4.510;2023-05-12T09:39:32;101159.81;;;14.36;100.00
27014;BME280;14556;52.222;4.510;2023-05-12T09:41:59;101165.22;;;14.29;100.00
27014;BME280;14556;52.222;4.510;2023-05-12T09:44:27;101157.59;;;14.26;100.00
27014;BME280;14556;52.222;4.510;2023-05-12T09:47:05;101155.25;;;14.36;100.00
27014;BME280;14556;52.222;4.510;2023-05-12T09:49:31;101167.41;;;14.46;100.00
27014;BME280;14556;52.222;4.510;2023-05-12T09:51:58;101173.81;;;14.52;100.00
27014;BME280;14556;52.222;4.510;2023-05-12T09:54:29;101177.09;;;14.54;100.00
27014;BME280;14556;52.222;4.510;2023-05-12T09:57:00;101155.94;;;14.57;100.00
27014;BME280;14556;52.222;4.510;2023-05-12T09:59:32;101164.69;;;14.78;100.00
27014;BME280;14556;52.222;4.510;2023-05-12T10:02:01;101162.75;;;14.92;100.00
27014;BME280;14556;52.222;4.510;2023-05-12T10:04:31;101168.25;;;15.04;100.00
27014;BME280;14556;52.222;4.510;2023-05-12T10:07:07;101173.97;;;14.89;100.00
27014;BME280;14556;52.222;4.510;2023-05-12T10:09:36;101168.06;;;14.99;100.00
27014;BME280;14556;52.222;4.510;2023-05-12T10:12:04;101178.81;;;15.06;100.00
27014;BME280;14556;52.222;4.510;2023-05-12T10:14:33;101167.00;;;15.26;100.00
27014;BME280;14556;52.222;4.510;2023-05-12T10:17:01;101172.56;;;15.31;100.00
27014;BME280;14556;52.222;4.510;2023-05-12T10:19:29;101173.75;;;15.16;100.00
27014;BME280;14556;52.222;4.510;2023-05-12T10:21:56;101169.00;;;15.11;100.00
27014;BME280;14556;52.222;4.510;2023-05-12T10:24:25;101177.03;;;15.18;100.00
27014;BME280;14556;52.222;4.510;2023-05-12T10:26:54;101175.19;;;15.38;100.00
27014;BME280;14556;52.222;4.510;2023-05-12T10:29:25;101177.47;;;15.59;100.00
27014;BME280;14556;52.222;4.510;2023-05-12T10:31:57;101173.72;;;15.79;100.00
27014;BME280;14556;52.222;4.510;2023-05-12T10:34:35;101166.28;;;15.75;100.00
27014;BME280;14556;52.222;4.510;2023-05-12T10:37:08;101182.38;;;15.81;100.00
27014;BME280;14556;52.222;4.510;2023-05-12T10:39:45;101186.59;;;15.96;100.00
27014;BME280;14556;52.222;4.510;2023-05-12T10:42:15;101189.50;;;15.94;100.00
27014;BME280;14556;52.222;4.510;2023-05-12T10:44:50;101178.44;;;15.84;100.00
27014;BME280;14556;52.222;4.510;2023-05-12T10:47:17;101181.03;;;15.91;100.00
27014;BME280;14556;52.222;4.510;2023-05-12T10:49:44;101181.19;;;16.15;100.00
27014;BME280;14556;52.222;4.510;2023-05-12T10:52:11;101179.69;;;16.19;100.00
27014;BME280;14556;52.222;4.510;2023-05-12T10:54:40;101180.78;;;16.30;100.00
27014;BME280;14556;52.222;4.510;2023-05-12T10:57:14;101182.22;;;16.44;100.00
27014;BME280;14556;52.222;4.510;2023-05-12T10:59:51;101174.47;;;16.36;100.00
27014;BME280;14556;52.222;4.510;2023-05-12T11:02:26;101178.31;;;16.28;100.00
27014;BME280;14556;52.222;4.510;2023-05-12T11:05:00;101185.53;;;16.16;100.00
27014;BME280;14556;52.222;4.510;2023-05-12T11:07:32;101166.00;;;16.33;100.00
27014;BME280;14556;52.222;4.510;2023-05-12T11:10:02;101139.13;;;16.38;100.00
27014;BME280;14556;52.222;4.510;2023-05-12T11:12:34;101168.88;;;16.50;100.00
27014;BME280;14556;52.222;4.510;2023-05-12T11:15:02;101182.22;;;16.75;100.00
27014;BME280;14556;52.222;4.510;2023-05-12T11:17:30;101174.69;;;16.77;100.00
27014;BME280;14556;52.222;4.510;2023-05-12T11:19:57;101174.88;;;16.64;100.00
27014;BME280;14556;52.222;4.510;2023-05-12T11:22:25;101182.69;;;16.72;100.00
27014;BME280;14556;52.222;4.510;2023-05-12T11:24:52;101180.09;;;16.77;100.00
27014;BME280;14556;52.222;4.510;2023-05-12T11:27:20;101187.25;;;16.72;100.00
27014;BME280;14556;52.222;4.510;2023-05-12T11:29:56;101189.34;;;16.58;100.00
27014;BME280;14556;52.222;4.510;2023-05-12T11:32:23;101189.09;;;16.59;100.00
27014;BME280;14556;52.222;4.510;2023-05-12T11:34:49;101179.50;;;16.63;100.00
27014;BME280;14556;52.222;4.510;2023-05-12T11:37:16;101189.25;;;16.76;100.00
27014;BME280;14556;52.222;4.510;2023-05-12T11:39:47;101192.66;;;16.72;100.00
27014;BME280;14556;52.222;4.510;2023-05-12T11:42:13;101199.38;;;16.81;100.00
27014;BME280;14556;52.222;4.510;2023-05-12T11:44:46;101191.22;;;16.69;100.00
27014;BME280;14556;52.222;4.510;2023-05-12T11:47:14;101186.19;;;16.73;100.00
27014;BME280;14556;52.222;4.510;2023-05-12T11:49:59;101176.56;;;16.65;100.00
27014;BME280;14556;52.222;4.510;2023-05-12T11:52:25;101189.84;;;16.90;100.00
27014;BME280;14556;52.222;4.510;2023-05-12T11:54:58;101187.28;;;17.08;100.00
27014;BME280;14556;52.222;4.510;2023-05-12T11:57:30;101190.09;;;17.01;100.00
27014;BME280;14556;52.222;4.510;2023-05-12T12:00:00;101182.94;;;17.07;100.00
27014;BME280;14556;52.222;4.510;2023-05-12T12:02:27;101180.84;;;17.09;100.00
27014;BME280;14556;52.222;4.510;2023-05-12T12:04:54;101190.03;;;17.32;100.00
27014;BME280;14556;52.222;4.510;2023-05-12T12:07:28;101178.41;;;17.31;100.00
27014;BME280;14556;52.222;4.510;2023-05-12T12:09:57;101184.16;;;17.35;100.00
27014;BME280;14556;52.222;4.510;2023-05-12T12:12:24;101193.53;;;17.44;100.00
27014;BME280;14556;52.222;4.510;2023-05-12T12:14:50;101192.59;;;17.50;100.00
27014;BME280;14556;52.222;4.510;2023-05-12T12:17:17;101189.44;;;17.30;100.00
27014;BME280;14556;52.222;4.510;2023-05-12T12:19:43;101202.25;;;17.22;100.00
27014;BME280;14556;52.222;4.510;2023-05-12T12:22:11;101208.03;;;17.26;100.00
27014;BME280;14556;52.222;4.510;2023-05-12T12:24:37;101187.00;;;17.28;100.00
27014;BME280;14556;52.222;4.510;2023-05-12T12:27:04;101200.38;;;17.35;100.00
27014;BME280;14556;52.222;4.510;2023-05-12T12:29:31;101208.25;;;17.48;100.00
27014;BME280;14556;52.222;4.510;2023-05-12T12:31:57;101203.53;;;17.56;100.00
27014;BME280;14556;52.222;4.510;2023-05-12T12:34:24;101204.03;;;17.40;100.00
27014;BME280;14556;52.222;4.510;2023-05-12T12:36:50;101210.25;;;17.65;100.00
27014;BME280;14556;52.222;4.510;2023-05-12T12:39:17;101198.72;;;17.58;100.00
27014;BME280;14556;52.222;4.510;2023-05-12T12:41:46;101201.91;;;17.31;100.00
27014;BME280;14556;52.222;4.510;2023-05-12T12:44:13;101210.38;;;17.22;100.00
27014;BME280;14556;52.222;4.510;2023-05-12T12:46:40;101205.31;;;17.38;100.00
27014;BME280;14556;52.222;4.510;2023-05-12T12:49:06;101208.72;;;17.45;100.00
27014;BME280;14556;52.222;4.510;2023-05-12T12:51:33;101200.84;;;17.44;100.00